createdAt,value
2018-06-15T00:00:46.386Z,6.50
2018-06-15T00:03:13.585Z,5.33
2018-06-15T00:14:22.797Z,5.93
2018-06-15T00:16:49.965Z,5.83
2018-06-15T00:19:17.121Z,6.40
2018-06-15T00:21:44.324Z,6.10
2018-06-15T00:24:11.485Z,5.07
2018-06-15T00:26:39.041Z,5.57
2018-06-15T00:29:06.205Z,6.03
2018-06-15T00:31:33.414Z,6.30
2018-06-15T00:34:00.585Z,6.00
2018-06-15T00:36:27.773Z,6.13
2018-06-15T00:38:54.938Z,5.70
2018-06-15T00:41:22.129Z,6.73
2018-06-15T00:43:49.384Z,5.87
2018-06-15T00:46:16.541Z,5.93
2018-06-15T00:48:43.769Z,8.10
2018-06-15T00:51:10.929Z,6.20
2018-06-15T00:56:12.353Z,5.93
2018-06-15T00:58:39.524Z,7.00
2018-06-15T01:01:06.694Z,5.87
2018-06-15T01:03:33.882Z,6.03
2018-06-15T01:06:01.061Z,6.93
2018-06-15T01:08:28.230Z,7.30
2018-06-15T01:10:55.445Z,7.10
2018-06-15T01:13:22.636Z,6.63
2018-06-15T01:15:49.813Z,7.30
2018-06-15T01:18:17.209Z,7.00
2018-06-15T01:20:44.734Z,7.00
2018-06-15T01:23:11.887Z,7.23
2018-06-15T01:25:39.088Z,6.60
2018-06-15T01:28:06.288Z,6.70
2018-06-15T01:30:33.453Z,6.83
2018-06-15T01:33:00.637Z,6.73
2018-06-15T01:35:27.826Z,6.50
2018-06-15T01:37:55.003Z,6.93
2018-06-15T01:40:22.392Z,6.00
2018-06-15T01:42:49.737Z,7.27
2018-06-15T01:45:16.910Z,6.40
2018-06-15T01:47:44.187Z,6.60
2018-06-15T01:50:11.406Z,6.33
2018-06-15T01:52:38.662Z,7.83
2018-06-15T01:55:05.857Z,7.13
2018-06-15T01:57:33.065Z,6.27
2018-06-15T02:00:00.245Z,6.40
2018-06-15T02:02:27.410Z,7.47
2018-06-15T02:04:54.662Z,7.07
2018-06-15T02:07:21.837Z,7.40
2018-06-15T02:09:49.169Z,7.33
2018-06-15T02:12:16.397Z,6.43
2018-06-15T02:14:43.568Z,7.20
2018-06-15T02:17:10.747Z,7.60
2018-06-15T02:19:37.918Z,6.57
2018-06-15T02:22:05.241Z,7.40
2018-06-15T02:24:32.450Z,7.30
2018-06-15T02:26:59.655Z,7.40
2018-06-15T02:29:26.823Z,7.80
2018-06-15T02:31:53.967Z,7.57
2018-06-15T02:34:21.149Z,7.30
2018-06-15T02:36:48.332Z,6.87
2018-06-15T02:39:15.503Z,7.13
2018-06-15T02:41:42.682Z,7.13
2018-06-15T02:44:09.856Z,7.13
2018-06-15T02:46:37.008Z,7.50
2018-06-15T02:49:04.587Z,7.47
2018-06-15T02:51:31.855Z,7.30
2018-06-15T02:53:59.095Z,7.80
2018-06-15T02:56:26.300Z,7.60
2018-06-15T02:59:00.274Z,8.17
2018-06-15T03:01:27.747Z,7.73
2018-06-15T03:03:55.099Z,9.50
2018-06-15T03:06:22.486Z,6.67
2018-06-15T03:08:49.634Z,7.50
2018-06-15T03:11:17.054Z,9.27
2018-06-15T03:13:44.217Z,8.03
2018-06-15T03:16:11.377Z,6.93
2018-06-15T03:18:38.530Z,6.50
2018-06-15T03:21:05.792Z,7.67
2018-06-15T03:23:32.973Z,7.97
2018-06-15T03:26:00.150Z,7.60
2018-06-15T03:28:27.309Z,7.37
2018-06-15T03:30:54.505Z,7.70
2018-06-15T03:33:21.673Z,7.77
2018-06-15T03:35:48.857Z,8.03
2018-06-15T03:38:16.023Z,7.27
2018-06-15T03:40:43.224Z,7.53
2018-06-15T03:43:10.381Z,6.90
2018-06-15T03:45:37.557Z,7.10
2018-06-15T03:48:04.876Z,7.40
2018-06-15T03:50:32.266Z,7.73
2018-06-15T03:52:59.489Z,7.27
2018-06-15T03:55:26.667Z,7.63
2018-06-15T03:57:53.845Z,7.27
2018-06-15T04:00:21.044Z,7.83
2018-06-15T04:02:48.206Z,7.77
2018-06-15T04:05:15.413Z,7.50
2018-06-15T04:07:42.681Z,7.93
2018-06-15T04:10:09.808Z,7.77
2018-06-15T04:12:36.972Z,8.13
2018-06-15T04:15:04.185Z,7.27
2018-06-15T04:17:31.345Z,6.27
2018-06-15T04:19:58.520Z,6.13
2018-06-15T04:22:25.702Z,6.60
2018-06-15T04:24:52.870Z,7.23
2018-06-15T04:27:20.029Z,7.70
2018-06-15T04:29:47.193Z,7.80
2018-06-15T04:32:14.341Z,6.70
2018-06-15T04:34:41.525Z,6.83
2018-06-15T04:37:08.685Z,7.37
2018-06-15T04:39:35.852Z,7.00
2018-06-15T04:42:03.033Z,6.80
2018-06-15T04:44:30.253Z,6.63
2018-06-15T04:46:57.416Z,6.80
2018-06-15T04:49:24.609Z,7.10
2018-06-15T04:51:51.809Z,7.50
2018-06-15T04:54:19.014Z,8.90
2018-06-15T04:56:46.285Z,8.00
2018-06-15T04:59:13.609Z,7.57
2018-06-15T05:01:40.792Z,7.97
2018-06-15T05:04:08.067Z,6.97
2018-06-15T05:06:35.229Z,6.70
2018-06-15T05:09:02.529Z,8.17
2018-06-15T05:11:29.717Z,7.23
2018-06-15T05:13:56.878Z,7.63
2018-06-15T05:16:24.055Z,7.03
2018-06-15T05:18:51.236Z,7.47
2018-06-15T05:21:18.410Z,8.40
2018-06-15T05:23:45.567Z,7.37
2018-06-15T05:26:12.741Z,8.00
2018-06-15T05:28:39.901Z,7.93
2018-06-15T05:31:07.065Z,7.47
2018-06-15T05:33:34.333Z,7.10
2018-06-15T05:36:01.516Z,8.00
2018-06-15T05:38:28.670Z,7.53
2018-06-15T05:40:56.035Z,7.43
2018-06-15T05:43:23.189Z,7.53
2018-06-15T05:45:50.569Z,5.90
2018-06-15T05:48:17.766Z,7.40
2018-06-15T05:50:45.006Z,5.90
2018-06-15T05:53:12.157Z,8.40
2018-06-15T05:55:39.471Z,6.00
2018-06-15T05:58:07.337Z,6.30
2018-06-15T06:00:34.756Z,6.07
2018-06-15T06:03:02.033Z,5.90
2018-06-15T06:05:29.301Z,6.50
2018-06-15T06:07:56.558Z,7.90
2018-06-15T06:10:23.925Z,6.57
2018-06-15T06:12:51.277Z,7.33
2018-06-15T06:15:18.577Z,6.73
2018-06-15T06:17:45.765Z,6.53
2018-06-15T06:20:12.997Z,7.63
2018-06-15T06:22:40.272Z,9.40
2018-06-15T06:25:07.625Z,7.43
2018-06-15T06:27:34.781Z,6.10
2018-06-15T06:30:02.153Z,5.67
2018-06-15T06:32:29.529Z,6.93
2018-06-15T06:34:56.689Z,6.00
2018-06-15T06:37:24.137Z,6.50
2018-06-15T06:39:51.304Z,7.07
2018-06-15T06:42:18.486Z,7.60
2018-06-15T06:44:45.660Z,7.60
2018-06-15T06:47:12.886Z,5.63
2018-06-15T06:49:40.142Z,5.00
2018-06-15T06:52:07.453Z,6.87
2018-06-15T06:54:34.605Z,6.20
2018-06-15T06:57:01.876Z,6.57
2018-06-15T06:59:30.121Z,7.17
2018-06-15T07:01:57.396Z,5.53
2018-06-15T07:04:24.657Z,7.03
2018-06-15T07:06:51.937Z,6.27
2018-06-15T07:09:19.181Z,6.43
2018-06-15T07:11:46.353Z,8.50
2018-06-15T07:14:13.513Z,5.90
2018-06-15T07:16:40.693Z,6.90
2018-06-15T07:19:08.025Z,6.30
2018-06-15T07:21:35.637Z,6.53
2018-06-15T07:24:02.884Z,6.77
2018-06-15T07:26:30.170Z,6.33
2018-06-15T07:28:57.429Z,7.63
2018-06-15T07:31:24.697Z,6.40
2018-06-15T07:33:51.956Z,8.63
2018-06-15T07:36:19.486Z,6.80
2018-06-15T07:38:46.769Z,8.83
2018-06-15T07:41:14.081Z,6.50
2018-06-15T07:43:41.296Z,7.93
2018-06-15T07:46:09.516Z,7.40
2018-06-15T07:48:36.737Z,7.00
2018-06-15T07:51:04.021Z,7.50
2018-06-15T07:53:31.323Z,7.10
2018-06-15T07:55:58.506Z,6.10
2018-06-15T07:58:25.664Z,6.80
2018-06-15T08:00:52.864Z,6.27
2018-06-15T08:03:20.015Z,6.67
2018-06-15T08:05:47.160Z,6.83
2018-06-15T08:08:14.316Z,8.77
2018-06-15T08:10:41.601Z,6.57
2018-06-15T08:13:08.773Z,6.33
2018-06-15T08:15:35.975Z,7.67
2018-06-15T08:18:03.171Z,6.37
2018-06-15T08:20:30.333Z,6.93
2018-06-15T08:22:57.504Z,7.43
2018-06-15T08:25:24.657Z,6.67
2018-06-15T08:27:51.846Z,7.07
2018-06-15T08:30:19.004Z,7.73
2018-06-15T08:32:46.182Z,9.70
2018-06-15T08:35:13.357Z,8.13
2018-06-15T08:37:40.605Z,7.70
2018-06-15T08:40:07.789Z,8.43
2018-06-15T08:42:34.957Z,7.80
2018-06-15T08:45:02.234Z,9.70
2018-06-15T08:47:29.429Z,10.23
2018-06-15T08:49:56.730Z,10.73
2018-06-15T08:52:23.925Z,11.00
2018-06-15T08:54:51.139Z,10.10
2018-06-15T08:57:18.421Z,10.37
2018-06-15T08:59:45.689Z,8.30
2018-06-15T09:02:12.862Z,8.27
2018-06-15T09:04:40.097Z,9.23
2018-06-15T09:07:07.413Z,8.33
2018-06-15T09:09:34.657Z,8.93
2018-06-15T09:12:01.906Z,8.03
2018-06-15T09:14:29.161Z,8.97
2018-06-15T09:16:56.438Z,7.93
2018-06-15T09:19:23.876Z,8.60
2018-06-15T09:21:51.152Z,8.83
2018-06-15T09:24:18.405Z,10.17
2018-06-15T09:26:45.577Z,9.60
2018-06-15T09:29:12.742Z,9.23
2018-06-15T09:31:40.049Z,8.77
2018-06-15T09:34:07.662Z,8.33
2018-06-15T09:36:34.975Z,7.97
2018-06-15T09:39:02.379Z,8.33
2018-06-15T09:41:29.560Z,8.27
2018-06-15T09:43:56.737Z,8.40
2018-06-15T09:46:24.107Z,7.20
2018-06-15T09:48:51.276Z,6.77
2018-06-15T09:51:18.476Z,7.77
2018-06-15T09:53:45.687Z,6.43
2018-06-15T09:56:12.849Z,7.63
2018-06-15T09:58:40.025Z,6.27
2018-06-15T10:01:09.105Z,6.83
2018-06-15T10:03:37.209Z,6.83
2018-06-15T10:06:04.434Z,7.57
2018-06-15T10:08:31.787Z,10.87
2018-06-15T10:10:59.080Z,11.30
2018-06-15T10:13:26.268Z,7.27
2018-06-15T10:15:53.615Z,9.73
2018-06-15T10:18:20.781Z,24.07
2018-06-15T10:20:47.937Z,8.20
2018-06-15T10:23:15.117Z,8.00
2018-06-15T10:25:42.283Z,8.10
2018-06-15T10:28:09.560Z,8.23
2018-06-15T10:30:36.753Z,7.87
2018-06-15T10:33:04.008Z,7.70
2018-06-15T10:35:31.158Z,7.80
2018-06-15T10:37:58.353Z,8.00
2018-06-15T10:40:25.509Z,7.63
2018-06-15T10:42:52.674Z,5.93
2018-06-15T10:45:19.826Z,6.30
2018-06-15T10:47:46.993Z,6.57
2018-06-15T10:50:14.159Z,6.10
2018-06-15T10:52:41.349Z,6.53
2018-06-15T10:55:08.505Z,6.90
2018-06-15T10:57:35.686Z,7.27
2018-06-15T11:00:03.147Z,7.80
2018-06-15T11:02:30.372Z,7.37
2018-06-15T11:04:57.545Z,7.83
2018-06-15T11:07:24.733Z,8.23
2018-06-15T11:09:51.997Z,7.30
2018-06-15T11:12:19.166Z,7.20
2018-06-15T11:14:46.409Z,7.50
2018-06-15T11:17:13.565Z,7.40
2018-06-15T11:19:40.736Z,8.03
2018-06-15T11:22:07.909Z,6.70
2018-06-15T11:24:35.100Z,7.60
2018-06-15T11:27:02.289Z,7.40
2018-06-15T11:29:29.614Z,6.87
2018-06-15T11:32:03.553Z,6.70
2018-06-15T11:34:30.903Z,7.43
2018-06-15T11:36:58.253Z,6.63
2018-06-15T11:39:25.420Z,6.50
2018-06-15T11:41:52.599Z,6.23
2018-06-15T11:44:19.774Z,7.20
2018-06-15T11:46:47.025Z,7.87
2018-06-15T11:49:14.196Z,7.67
2018-06-15T11:51:41.442Z,7.87
2018-06-15T11:54:08.708Z,8.43
2018-06-15T11:56:35.893Z,7.30
2018-06-15T11:59:03.069Z,8.13
2018-06-15T12:01:30.224Z,8.93
2018-06-15T12:03:57.401Z,6.63
2018-06-15T12:06:24.568Z,7.03
2018-06-15T12:08:51.767Z,7.60
2018-06-15T12:11:18.922Z,7.50
2018-06-15T12:13:46.089Z,7.43
2018-06-15T12:16:13.253Z,6.27
2018-06-15T12:18:40.441Z,7.27
2018-06-15T12:21:07.596Z,5.53
2018-06-15T12:23:34.765Z,6.97
2018-06-15T12:26:01.924Z,5.03
2018-06-15T12:28:29.151Z,5.70
2018-06-15T12:30:56.324Z,6.63
2018-06-15T12:33:23.491Z,6.33
2018-06-15T12:38:24.801Z,5.23
2018-06-15T12:40:58.841Z,5.13
2018-06-15T12:43:26.010Z,5.97
2018-06-15T12:45:53.262Z,4.90
2018-06-15T12:48:20.361Z,5.93
2018-06-15T12:50:47.533Z,5.50
2018-06-15T12:53:15.489Z,6.47
2018-06-15T12:55:42.664Z,6.03
2018-06-15T12:58:09.857Z,5.37
2018-06-15T13:00:37.024Z,5.43
2018-06-15T13:03:04.385Z,5.60
2018-06-15T13:05:31.544Z,5.10
2018-06-15T13:07:58.772Z,5.40
2018-06-15T13:10:25.886Z,6.53
2018-06-15T13:12:53.057Z,5.43
2018-06-15T13:15:20.262Z,4.73
2018-06-15T13:17:47.709Z,5.70
2018-06-15T13:20:14.843Z,4.77
2018-06-15T13:22:42.006Z,7.57
2018-06-15T13:25:09.181Z,4.00
2018-06-15T13:27:36.352Z,4.90
2018-06-15T13:30:03.677Z,4.07
2018-06-15T13:32:30.841Z,4.00
2018-06-15T13:34:58.033Z,3.50
2018-06-15T13:37:25.207Z,4.17
2018-06-15T13:39:52.453Z,5.77
2018-06-15T13:42:19.611Z,5.13
2018-06-15T13:44:46.791Z,4.07
2018-06-15T13:47:13.957Z,5.70
2018-06-15T13:49:41.125Z,4.87
2018-06-15T13:52:08.435Z,4.03
2018-06-15T13:54:35.613Z,4.40
2018-06-15T13:57:02.805Z,4.07
2018-06-15T13:59:29.985Z,4.00
2018-06-15T14:01:57.250Z,4.00
2018-06-15T14:04:24.417Z,3.97
2018-06-15T14:06:51.664Z,4.70
2018-06-15T14:09:18.793Z,3.77
2018-06-15T14:11:45.960Z,3.70
2018-06-15T14:14:13.217Z,6.47
2018-06-15T14:16:40.381Z,3.83
2018-06-15T14:19:07.573Z,5.53
2018-06-15T14:21:34.726Z,3.43
2018-06-15T14:24:01.910Z,3.80
2018-06-15T14:26:29.073Z,4.10
2018-06-15T14:28:56.241Z,3.30
2018-06-15T14:31:23.397Z,3.70
2018-06-15T14:33:50.585Z,4.23
2018-06-15T14:36:17.740Z,3.90
2018-06-15T14:38:44.905Z,3.63
2018-06-15T14:41:12.071Z,3.70
2018-06-15T14:43:39.264Z,3.77
2018-06-15T14:46:06.437Z,5.03
2018-06-15T14:48:33.580Z,3.37
2018-06-15T14:51:00.941Z,3.80
2018-06-15T14:53:28.117Z,4.70
2018-06-15T14:55:55.312Z,4.80
2018-06-15T14:58:22.513Z,3.70
2018-06-15T15:00:49.653Z,3.93
2018-06-15T15:03:16.852Z,4.57
2018-06-15T15:05:44.145Z,4.97
2018-06-15T15:08:11.306Z,3.90
2018-06-15T15:10:38.481Z,3.90
2018-06-15T15:13:05.639Z,3.93
2018-06-15T15:15:32.808Z,3.93
2018-06-15T15:17:59.961Z,4.23
2018-06-15T15:20:27.129Z,3.87
2018-06-15T15:22:54.293Z,4.10
2018-06-15T15:25:21.478Z,4.50
2018-06-15T15:27:48.649Z,5.03
2018-06-15T15:30:15.841Z,4.57
2018-06-15T15:32:43.000Z,4.97
2018-06-15T15:35:10.196Z,5.03
2018-06-15T15:37:37.365Z,4.47
2018-06-15T15:40:04.573Z,3.83
2018-06-15T15:42:31.733Z,3.67
2018-06-15T15:44:58.978Z,4.43
2018-06-15T15:47:26.081Z,3.83
2018-06-15T15:49:53.476Z,4.23
2018-06-15T15:52:20.629Z,3.50
2018-06-15T15:54:47.806Z,4.80
2018-06-15T15:57:14.993Z,5.00
2018-06-15T15:59:42.202Z,4.23
2018-06-15T16:02:09.372Z,5.70
2018-06-15T16:04:36.641Z,4.93
2018-06-15T16:07:03.882Z,5.47
2018-06-15T16:09:31.209Z,5.33
2018-06-15T16:11:58.376Z,4.73
2018-06-15T16:14:25.560Z,3.90
2018-06-15T16:16:53.049Z,3.23
2018-06-15T16:19:20.233Z,4.27
2018-06-15T16:21:47.577Z,5.53
2018-06-15T16:24:14.821Z,5.10
2018-06-15T16:26:42.101Z,5.43
2018-06-15T16:29:09.257Z,4.47
2018-06-15T16:31:36.426Z,4.00
2018-06-15T16:34:03.621Z,4.73
2018-06-15T16:36:30.789Z,5.77
2018-06-15T16:38:57.976Z,4.17
2018-06-15T16:41:25.149Z,4.80
2018-06-15T16:43:52.333Z,4.23
2018-06-15T16:46:19.609Z,5.63
2018-06-15T16:48:46.765Z,4.00
2018-06-15T16:51:13.954Z,4.70
2018-06-15T16:53:41.122Z,3.73
2018-06-15T16:56:08.396Z,3.70
2018-06-15T16:58:35.557Z,5.23
2018-06-15T17:01:02.741Z,4.23
2018-06-15T17:03:29.901Z,4.40
2018-06-15T17:05:58.139Z,3.87
2018-06-15T17:08:25.337Z,4.10
2018-06-15T17:10:52.501Z,4.63
2018-06-15T17:13:19.656Z,4.10
2018-06-15T17:15:46.833Z,5.13
2018-06-15T17:18:13.996Z,4.63
2018-06-15T17:20:41.202Z,5.03
2018-06-15T17:23:08.353Z,4.23
2018-06-15T17:25:35.632Z,4.40
2018-06-15T17:28:02.805Z,5.27
2018-06-15T17:30:29.978Z,4.50
2018-06-15T17:32:57.152Z,4.57
2018-06-15T17:35:24.371Z,4.13
2018-06-15T17:37:51.545Z,4.50
2018-06-15T17:40:18.733Z,4.40
2018-06-15T17:42:45.896Z,6.00
2018-06-15T17:45:13.221Z,7.40
2018-06-15T17:47:40.381Z,5.70
2018-06-15T17:50:07.557Z,5.17
2018-06-15T17:52:34.833Z,5.30
2018-06-15T17:55:02.034Z,4.60
2018-06-15T17:57:29.221Z,4.83
2018-06-15T17:59:56.454Z,5.63
2018-06-15T18:02:23.645Z,4.60
2018-06-15T18:04:50.932Z,4.23
2018-06-15T18:07:18.096Z,4.83
2018-06-15T18:09:45.260Z,10.43
2018-06-15T18:12:12.499Z,12.53
2018-06-15T18:14:39.873Z,12.43
2018-06-15T18:17:07.055Z,8.87
2018-06-15T18:19:34.218Z,7.53
2018-06-15T18:22:01.389Z,7.03
2018-06-15T18:24:28.565Z,7.33
2018-06-15T18:26:55.737Z,5.17
2018-06-15T18:29:22.952Z,5.50
2018-06-15T18:31:50.218Z,7.53
2018-06-15T18:34:24.295Z,5.30
2018-06-15T18:36:51.449Z,5.63
2018-06-15T18:39:18.598Z,6.17
2018-06-15T18:41:45.971Z,5.03
2018-06-15T18:44:13.129Z,4.93
2018-06-15T18:46:40.306Z,5.27
2018-06-15T18:49:07.925Z,5.07
2018-06-15T18:51:35.401Z,5.00
2018-06-15T18:54:02.598Z,4.87
2018-06-15T18:56:29.782Z,5.37
2018-06-15T18:58:57.021Z,5.63
2018-06-15T19:01:24.264Z,4.90
2018-06-15T19:03:51.421Z,5.27
2018-06-15T19:06:18.596Z,5.40
2018-06-15T19:08:45.745Z,4.90
2018-06-15T19:11:12.930Z,5.17
2018-06-15T19:13:40.521Z,6.50
2018-06-15T19:16:07.721Z,5.37
2018-06-15T19:18:34.901Z,6.77
2018-06-15T19:21:02.081Z,5.57
2018-06-15T19:23:29.240Z,5.60
2018-06-15T19:25:56.411Z,6.17
2018-06-15T19:28:23.569Z,5.60
2018-06-15T19:30:50.725Z,5.53
2018-06-15T19:33:17.901Z,8.93
2018-06-15T19:35:45.090Z,5.40
2018-06-15T19:38:12.259Z,5.70
2018-06-15T19:40:39.418Z,6.10
2018-06-15T19:43:06.629Z,5.80
2018-06-15T19:45:33.838Z,6.07
2018-06-15T19:48:01.014Z,5.23
2018-06-15T19:50:28.174Z,5.80
2018-06-15T19:52:55.365Z,6.93
2018-06-15T19:55:22.738Z,7.13
2018-06-15T19:57:49.985Z,6.47
2018-06-15T20:00:17.302Z,6.00
2018-06-15T20:02:44.481Z,6.27
2018-06-15T20:05:11.715Z,8.33
2018-06-15T20:07:38.842Z,5.70
2018-06-15T20:10:06.109Z,5.67
2018-06-15T20:12:33.297Z,5.90
2018-06-15T20:15:00.568Z,8.70
2018-06-15T20:17:27.748Z,9.20
2018-06-15T20:19:54.922Z,11.17
2018-06-15T20:22:22.097Z,8.80
2018-06-15T20:24:49.253Z,9.83
2018-06-15T20:27:16.443Z,8.50
2018-06-15T20:29:43.605Z,7.63
2018-06-15T20:32:10.782Z,7.93
2018-06-15T20:34:37.977Z,7.93
2018-06-15T20:37:05.149Z,8.00
2018-06-15T20:39:32.301Z,7.60
2018-06-15T20:41:59.465Z,7.67
2018-06-15T20:44:28.797Z,6.63
2018-06-15T20:46:55.985Z,7.20
2018-06-15T20:49:23.141Z,6.60
2018-06-15T20:51:50.417Z,6.23
2018-06-15T20:54:17.637Z,9.27
2018-06-15T20:56:44.802Z,7.30
2018-06-15T20:59:11.953Z,8.27
2018-06-15T21:01:39.125Z,7.27
2018-06-15T21:04:06.341Z,7.23
2018-06-15T21:06:33.513Z,7.00
2018-06-15T21:09:00.708Z,6.77
2018-06-15T21:11:27.868Z,8.40
2018-06-15T21:13:55.104Z,7.17
2018-06-15T21:16:22.290Z,8.40
2018-06-15T21:18:49.529Z,8.03
2018-06-15T21:21:16.681Z,8.20
2018-06-15T21:23:43.860Z,7.60
2018-06-15T21:26:11.058Z,7.33
2018-06-15T21:28:38.259Z,7.27
2018-06-15T21:31:05.677Z,7.20
2018-06-15T21:33:32.917Z,7.10
2018-06-15T21:36:01.173Z,9.03
2018-06-15T21:38:28.349Z,8.80
2018-06-15T21:40:55.508Z,8.87
2018-06-15T21:43:22.741Z,8.17
2018-06-15T21:45:49.933Z,8.47
2018-06-15T21:48:17.113Z,7.97
2018-06-15T21:50:44.385Z,9.17
2018-06-15T21:53:11.585Z,7.70
2018-06-15T21:55:38.757Z,8.00
2018-06-15T21:58:05.930Z,8.10
2018-06-15T22:00:33.109Z,8.17
2018-06-15T22:03:00.374Z,8.23
2018-06-15T22:05:27.541Z,9.13
2018-06-15T22:07:54.729Z,7.80
2018-06-15T22:10:21.908Z,8.50
2018-06-15T22:12:49.086Z,8.47
2018-06-15T22:15:16.249Z,8.13
2018-06-15T22:17:43.463Z,7.97
2018-06-15T22:20:10.624Z,8.40
2018-06-15T22:22:37.792Z,7.50
2018-06-15T22:25:04.965Z,9.27
2018-06-15T22:27:32.157Z,7.33
2018-06-15T22:29:59.341Z,7.83
2018-06-15T22:32:26.515Z,7.77
2018-06-15T22:34:53.695Z,7.20
2018-06-15T22:37:20.909Z,7.27
2018-06-15T22:39:48.614Z,7.97
2018-06-15T22:42:16.066Z,8.67
2018-06-15T22:44:43.323Z,7.87
2018-06-15T22:47:10.696Z,7.17
2018-06-15T22:49:37.873Z,6.67
2018-06-15T22:52:11.817Z,8.50
2018-06-15T22:54:38.998Z,6.80
2018-06-15T22:57:06.162Z,8.00
2018-06-15T22:59:33.337Z,7.50
2018-06-15T23:02:00.493Z,6.80
2018-06-15T23:04:27.691Z,7.50
2018-06-15T23:06:54.884Z,7.30
2018-06-15T23:09:22.072Z,7.30
2018-06-15T23:11:49.229Z,7.20
2018-06-15T23:14:16.416Z,7.10
2018-06-15T23:16:43.609Z,7.20
2018-06-15T23:19:10.793Z,7.20
2018-06-15T23:21:37.948Z,8.53
2018-06-15T23:24:05.269Z,7.93
2018-06-15T23:26:32.468Z,8.80
2018-06-15T23:28:59.653Z,7.37
2018-06-15T23:31:26.912Z,8.07
2018-06-15T23:33:54.100Z,7.27
2018-06-15T23:36:21.265Z,7.03
2018-06-15T23:38:48.433Z,6.73
2018-06-15T23:41:15.637Z,6.77
2018-06-15T23:43:43.017Z,7.33
2018-06-15T23:46:10.481Z,7.50
2018-06-15T23:48:37.773Z,7.53
2018-06-15T23:51:05.228Z,7.43
2018-06-15T23:53:32.489Z,7.80
2018-06-15T23:55:59.646Z,7.90
2018-06-15T23:58:26.861Z,8.23
